Terminal Aerodrome Forecast
Issued by NWS North Platte, NE

Home | Current Version | Previous Version | Graphics & Text | Print | Product List | Glossary On
Versions: 1 2 3 4 5 6 7 8 9 10 11 12 13
380
FTUS43 KLBF 221137
TAFVTN
TAF
KVTN 221137Z 2212/2312 26004KT P6SM FEW250
     FM222200 20006KT P6SM FEW250
     FM230500 19010KT P6SM SKC=

USA.gov is the U.S. government's official web portal to all federal, state and local government web resources and services.